KISW/ISW METAR and TAF weather

Enter ICAO airport designator
Station Type Date Time Source
KISW METAR 2020/01/29 12:54 UTC NOAA

KISW 291254Z AUTO 00000KT 10SM OVC024 M07/M10 A3019 RMK AO2 SLP243 T10721100


Station Type Date Time Source
KISW Decoded METAR 2020/01/29 12:54 UTC NOAA

WI RAPIDS ALEXANDER FIELD, WI, United States (KISW) 44-22N 89-50W 307M
Jan 29, 2020 - 07:54 AM EST / 2020.01.29 1254 UTC
Wind: Calm:0
Visibility: 10 mile(s):0
Sky conditions: overcast
Temperature: 19.0 F (-7.2 C)
Dew Point: 14.0 F (-10.0 C)
Relative Humidity: 80%
Pressure (altimeter): 30.19 in. Hg (1022 hPa)
ob: KISW 291254Z AUTO 00000KT 10SM OVC024 M07/M10 A3019 RMK AO2 SLP243 T10721100
cycle: 13

Station Type Date Time Source
KISW TAF UTC NOAA

Error!

Example: see airport list